Time;durP1;ratioP1;P1;durP2;ratioP2;P2;SDS_P1;SDS_P2;PMS_P1;PMS_P2;Temp;Humidity;BMP_temperature;BMP_pressure;BME280_temperature;BME280_humidity;BME280_pressure;Samples;Min_cycle;Max_cycle;Signal;HPM_P1;HPM_P2
2022/11/30 00:00:30;;;;;;;79.10;60.80;;;;;;;0.23;74.92;101373.26;108489;1276;21967;-78
2022/11/30 00:03:17;;;;;;;86.90;56.40;;;;;;;0.24;75.04;101373.30;108743;1271;21998;-78
2022/11/30 00:05:47;;;;;;;70.10;56.00;;;;;;;0.24;74.95;101374.48;108596;1275;23743;-78
2022/11/30 00:08:17;;;;;;;77.90;58.70;;;;;;;0.18;74.96;101374.38;108540;1276;21924;-79
2022/11/30 00:10:47;;;;;;;72.70;57.60;;;;;;;0.19;75.08;101374.58;108788;1277;21931;-79
2022/11/30 00:13:18;;;;;;;73.40;57.60;;;;;;;0.22;75.09;101378.23;108643;1274;21932;-79
2022/11/30 00:15:50;;;;;;;77.60;58.60;;;;;;;0.27;75.12;101376.62;108597;1272;23604;-79
2022/11/30 00:18:19;;;;;;;79.70;57.80;;;;;;;0.33;75.15;101377.93;108615;1274;23829;-79
2022/11/30 00:20:48;;;;;;;72.80;58.40;;;;;;;0.39;75.12;101378.57;108440;1276;21944;-81
2022/11/30 00:23:17;;;;;;;75.90;58.40;;;;;;;0.41;75.13;101381.69;108582;1274;22019;-80
2022/11/30 00:25:49;;;;;;;69.30;55.50;;;;;;;0.43;75.14;101382.08;108700;1275;21921;-80
2022/11/30 00:28:24;;;;;;;73.70;58.10;;;;;;;0.45;75.18;101382.45;108968;1273;21924;-81
2022/11/30 00:31:06;;;;;;;65.30;52.60;;;;;;;0.44;75.00;101387.23;108709;1273;21922;-80
2022/11/30 00:33:39;;;;;;;65.20;52.20;;;;;;;0.38;74.84;101388.31;108793;1275;23064;-81
2022/11/30 00:36:20;;;;;;;62.30;52.30;;;;;;;0.34;74.80;101392.00;108649;1275;21991;-80
2022/11/30 00:39:06;;;;;;;63.20;51.70;;;;;;;0.28;74.77;101391.70;108630;1275;21963;-81
2022/11/30 00:41:48;;;;;;;67.10;52.50;;;;;;;0.17;74.78;101392.14;108328;1280;24197;-80
2022/11/30 00:44:41;;;;;;;68.00;51.90;;;;;;;0.07;75.00;101395.52;108405;1278;22407;-79
2022/11/30 00:47:17;;;;;;;69.50;55.10;;;;;;;0.00;75.11;101394.70;108230;1284;21948;-79
2022/11/30 00:49:53;;;;;;;70.20;54.70;;;;;;;0.05;75.33;101397.01;108166;1286;21958;-80
2022/11/30 00:52:29;;;;;;;72.30;57.20;;;;;;;0.14;75.46;101400.30;107963;1283;21941;-79
2022/11/30 00:55:09;;;;;;;71.20;56.50;;;;;;;0.21;75.39;101401.31;108144;1281;23077;-80
2022/11/30 00:57:49;;;;;;;72.90;55.70;;;;;;;0.22;75.32;101398.95;108187;1283;23552;-80
2022/11/30 01:00:27;;;;;;;68.20;54.40;;;;;;;0.24;75.25;101399.31;108433;1279;23581;-79
2022/11/30 01:03:06;;;;;;;64.30;51.90;;;;;;;0.25;75.22;101402.07;108275;1279;22751;-79
2022/11/30 01:06:14;;;;;;;74.50;53.90;;;;;;;0.20;75.16;101405.05;108606;1276;23639;-80
2022/11/30 01:08:49;;;;;;;65.70;52.30;;;;;;;0.16;75.12;101404.63;108876;1281;22032;-80
2022/11/30 01:11:27;;;;;;;67.00;52.80;;;;;;;0.13;75.08;101403.37;108428;1278;22089;-81
2022/11/30 01:13:59;;;;;;;65.90;53.10;;;;;;;0.11;75.03;101406.23;108681;1278;22051;-80
2022/11/30 01:16:41;;;;;;;65.00;51.00;;;;;;;0.11;75.12;101407.95;108605;1281;22074;-80
2022/11/30 01:19:13;;;;;;;64.70;52.90;;;;;;;0.09;75.16;101406.53;108537;1274;23050;-80
2022/11/30 01:21:51;;;;;;;68.30;55.70;;;;;;;0.09;75.09;101410.98;108537;1276;21931;-80
2022/11/30 01:24:21;;;;;;;65.10;51.90;;;;;;;0.05;75.01;101411.39;108587;1276;23010;-79
2022/11/30 01:26:52;;;;;;;74.70;56.90;;;;;;;0.02;75.11;101410.99;108574;1275;23764;-80
2022/11/30 01:29:22;;;;;;;81.00;57.60;;;;;;;0.01;75.20;101407.05;108807;1278;21967;-79
2022/11/30 01:31:54;;;;;;;70.10;56.90;;;;;;;0.01;75.28;101406.20;108703;1278;21931;-79
2022/11/30 01:34:27;;;;;;;73.20;56.10;;;;;;;0.03;75.33;101408.95;108628;1278;24358;-80
2022/11/30 01:37:03;;;;;;;76.90;59.60;;;;;;;0.05;75.43;101409.52;108558;1279;23577;-80
2022/11/30 01:39:41;;;;;;;74.20;55.60;;;;;;;0.09;75.47;101408.23;107626;1279;1157903;-82
2022/11/30 01:42:36;;;;;;;65.70;52.50;;;;;;;0.07;75.36;101411.96;108498;1279;21936;-79
2022/11/30 01:45:11;;;;;;;67.40;52.70;;;;;;;-0.02;75.23;101409.02;108518;1275;22035;-79
2022/11/30 01:47:50;;;;;;;64.10;51.10;;;;;;;-0.10;75.34;101409.70;108545;1279;23052;-78
2022/11/30 01:50:34;;;;;;;68.60;54.00;;;;;;;-0.16;75.40;101416.91;108577;1279;23754;-79
2022/11/30 01:53:30;;;;;;;68.80;54.30;;;;;;;-0.16;75.73;101417.08;108610;1275;23062;-79
2022/11/30 01:56:20;;;;;;;70.90;53.20;;;;;;;-0.16;75.86;101418.28;108529;1276;21929;-79
2022/11/30 01:59:00;;;;;;;;;;;;;;;;;;;;;
2022/11/30 02:01:46;;;;;;;68.10;54.20;;;;;;;-0.28;75.81;101418.17;109153;1275;22005;-80
2022/11/30 02:04:40;;;;;;;72.00;53.80;;;;;;;-0.26;76.02;101422.32;109118;1275;24264;-80
2022/11/30 02:07:17;;;;;;;74.30;54.80;;;;;;;-0.23;76.02;101422.73;108833;1275;21912;-82
2022/11/30 02:09:52;;;;;;;68.10;54.40;;;;;;;-0.22;75.94;101423.27;109028;1275;21928;-80
2022/11/30 02:12:58;;;;;;;72.60;55.20;;;;;;;-0.18;76.02;101426.10;108841;1275;21967;-80
2022/11/30 02:15:43;;;;;;;73.20;55.60;;;;;;;-0.15;76.12;101426.69;108673;1281;23591;-80
2022/11/30 02:18:29;;;;;;;69.90;54.80;;;;;;;-0.16;76.04;101426.31;108418;1281;23189;-79
2022/11/30 02:21:10;;;;;;;73.20;55.40;;;;;;;-0.16;75.93;101430.09;108494;1273;23686;-79
2022/11/30 02:24:14;;;;;;;79.80;60.50;;;;;;;-0.17;76.01;101428.87;108717;1280;21963;-80
2022/11/30 02:27:17;;;;;;;72.10;57.30;;;;;;;-0.20;76.07;101428.11;108795;1280;21910;-81
2022/11/30 02:30:09;;;;;;;80.20;58.70;;;;;;;-0.19;76.26;101422.98;108761;1281;21922;-79
2022/11/30 02:33:02;;;;;;;77.30;57.20;;;;;;;-0.13;76.19;101422.11;108895;1275;21935;-79
2022/11/30 02:35:56;;;;;;;79.80;58.20;;;;;;;-0.10;76.21;101423.38;108756;1273;23132;-80
2022/11/30 02:38:33;;;;;;;72.50;55.50;;;;;;;-0.06;76.25;101418.17;109031;1273;21929;-79
2022/11/30 02:41:09;;;;;;;70.60;54.40;;;;;;;-0.03;76.17;101417.39;108905;1273;21935;-80
2022/11/30 02:44:00;;;;;;;80.10;56.70;;;;;;;-0.05;76.11;101418.54;109050;1274;21925;-80
2022/11/30 02:47:18;;;;;;;79.90;58.00;;;;;;;-0.05;76.07;101420.23;109045;1273;22652;-79
2022/11/30 02:50:08;;;;;;;71.40;52.80;;;;;;;-0.07;76.12;101418.65;109062;1272;21892;-79
2022/11/30 02:52:44;;;;;;;74.10;56.60;;;;;;;-0.07;76.08;101422.27;108979;1275;21984;-79
2022/11/30 02:55:37;;;;;;;;;;;;;;;;;;;;;
2022/11/30 02:58:15;;;;;;;83.40;58.20;;;;;;;-0.12;76.14;101422.66;109113;1273;23826;-79
2022/11/30 03:00:48;;;;;;;78.90;58.60;;;;;;;-0.12;76.11;101421.29;108936;1275;21988;-80
2022/11/30 03:03:18;;;;;;;75.60;55.20;;;;;;;-0.14;76.20;101423.46;108761;1275;22707;-79
2022/11/30 03:05:54;;;;;;;72.80;54.40;;;;;;;-0.18;76.18;101422.85;108817;1274;21935;-79
2022/11/30 03:08:44;;;;;;;78.00;55.90;;;;;;;-0.19;76.25;101420.80;109112;1273;22629;-80
2022/11/30 03:11:34;;;;;;;77.10;56.60;;;;;;;-0.18;76.26;101419.09;108960;1273;21916;-80
2022/11/30 03:14:10;;;;;;;75.40;56.30;;;;;;;-0.14;76.41;101421.75;108924;1274;21909;-79
2022/11/30 03:16:46;;;;;;;78.10;56.90;;;;;;;-0.11;76.35;101428.32;108901;1275;21924;-80
2022/11/30 03:19:27;;;;;;;;;;;;;;;-0.09;76.34;101430.24;108968;1274;21910;-80
2022/11/30 03:22:14;;;;;;;74.90;54.10;;;;;;;-0.14;76.54;101429.64;108872;1274;23966;-79
2022/11/30 03:24:46;;;;;;;74.40;57.20;;;;;;;-0.10;76.63;101430.06;109012;1274;23055;-81
2022/11/30 03:27:29;;;;;;;80.80;56.30;;;;;;;-0.07;76.53;101430.48;109176;1273;21941;-79
2022/11/30 03:30:32;;;;;;;78.00;57.50;;;;;;;-0.06;76.49;101433.08;108836;1272;21916;-80
2022/11/30 03:33:22;;;;;;;77.70;54.20;;;;;;;-0.05;76.51;101428.46;108859;1267;21905;-81
2022/11/30 03:36:08;;;;;;;77.00;57.00;;;;;;;0.01;76.55;101434.59;108870;1272;24260;-80
2022/11/30 03:38:47;;;;;;;76.90;55.60;;;;;;;0.04;76.47;101434.98;108776;1275;22262;-79
2022/11/30 03:41:20;;;;;;;73.20;56.10;;;;;;;0.06;76.47;101439.15;108964;1272;23693;-79
2022/11/30 03:43:50;;;;;;;77.10;57.00;;;;;;;0.09;76.42;101446.73;108704;1273;22870;-78
2022/11/30 03:46:33;;;;;;;74.70;53.90;;;;;;;0.08;76.38;101444.33;108759;1274;21968;-79
2022/11/30 03:49:13;;;;;;;71.70;52.80;;;;;;;0.02;76.25;101439.91;108713;1274;21992;-79
2022/11/30 03:51:51;;;;;;;69.40;51.40;;;;;;;-0.04;76.33;101439.10;108800;1274;21925;-79
2022/11/30 03:54:32;;;;;;;69.90;53.30;;;;;;;-0.08;76.45;101440.04;108851;1272;22413;-79
2022/11/30 03:57:30;;;;;;;;;;;;;;;;;;;;;
2022/11/30 04:00:15;;;;;;;69.00;53.30;;;;;;;-0.07;76.59;101442.11;108699;1273;23041;-78
2022/11/30 04:02:56;;;;;;;68.10;50.80;;;;;;;-0.04;76.58;101444.92;108966;1275;23048;-79
2022/11/30 04:05:28;;;;;;;71.70;53.90;;;;;;;-0.04;76.49;101444.23;109093;1273;21937;-79
2022/11/30 04:08:09;;;;;;;75.60;55.20;;;;;;;-0.07;76.45;101445.38;109047;1273;21910;-78
2022/11/30 04:10:40;;;;;;;70.00;53.40;;;;;;;-0.08;76.41;101442.07;108922;1272;21932;-79
2022/11/30 04:13:10;;;;;;;72.30;53.20;;;;;;;-0.10;76.47;101438.80;108766;1275;21921;-80
2022/11/30 04:15:49;;;;;;;76.60;54.80;;;;;;;-0.08;76.55;101437.11;108666;1272;21988;-80
2022/11/30 04:18:42;;;;;;;75.50;53.90;;;;;;;-0.06;76.70;101438.20;108996;1272;21923;-79
2022/11/30 04:21:33;;;;;;;80.40;56.90;;;;;;;-0.05;76.70;101441.65;108784;1273;22815;-79
2022/11/30 04:24:08;;;;;;;100.40;67.00;;;;;;;-0.02;76.72;101443.93;108942;1273;21927;-79
2022/11/30 04:27:03;;;;;;;82.80;58.40;;;;;;;-0.03;76.61;101443.05;109015;1272;21923;-78
2022/11/30 04:29:35;;;;;;;86.10;60.20;;;;;;;-0.01;76.63;101448.41;108449;1281;21952;-79
2022/11/30 04:32:09;;;;;;;80.40;58.80;;;;;;;0.00;76.64;101450.32;108474;1279;21962;-79
2022/11/30 04:34:55;;;;;;;;;;;;;;;;;;;;;
2022/11/30 04:37:32;;;;;;;76.20;54.70;;;;;;;-0.03;76.56;101456.40;108580;1280;21943;-79
2022/11/30 04:40:11;;;;;;;77.80;58.70;;;;;;;-0.06;76.51;101455.64;108563;1275;22074;-79
2022/11/30 04:42:51;;;;;;;77.50;58.00;;;;;;;-0.11;76.60;101446.29;108523;1276;21942;-79
2022/11/30 04:45:32;;;;;;;71.90;55.60;;;;;;;-0.19;76.64;101439.95;108542;1278;22058;-78
2022/11/30 04:48:09;;;;;;;77.30;54.90;;;;;;;-0.20;76.83;101447.80;108532;1275;21929;-79
2022/11/30 04:50:59;;;;;;;168.30;114.10;;;;;;;-0.25;76.91;101451.42;108804;1272;23647;-80
2022/11/30 04:53:39;;;;;;;186.10;129.20;;;;;;;-0.27;76.94;101456.02;108968;1272;23664;-79
2022/11/30 04:56:14;;;;;;;178.40;134.20;;;;;;;-0.20;77.11;101460.79;108931;1272;21936;-79
2022/11/30 04:58:47;;;;;;;102.90;80.60;;;;;;;-0.11;77.10;101465.45;108763;1272;21927;-80
2022/11/30 05:01:54;;;;;;;92.30;71.40;;;;;;;-0.09;77.06;101470.64;108942;1272;21922;-80
2022/11/30 05:04:33;;;;;;;79.90;59.50;;;;;;;-0.16;76.93;101467.56;109050;1272;24308;-79
2022/11/30 05:07:06;;;;;;;77.50;58.50;;;;;;;-0.20;76.97;101468.65;108771;1272;22264;-79
2022/11/30 05:09:37;;;;;;;68.90;52.70;;;;;;;-0.22;77.09;101474.09;108875;1272;22988;-78
2022/11/30 05:12:13;;;;;;;77.60;57.20;;;;;;;-0.21;77.16;101473.27;108938;1275;22788;-80
2022/11/30 05:14:48;;;;;;;81.10;60.30;;;;;;;-0.21;77.19;101475.30;108697;1274;21930;-79
2022/11/30 05:17:23;;;;;;;80.90;56.80;;;;;;;-0.23;77.13;101471.66;108799;1272;21927;-79
2022/11/30 05:19:54;;;;;;;77.60;57.40;;;;;;;-0.24;77.09;101476.61;108846;1261;23042;-79
2022/11/30 05:22:26;;;;;;;100.30;71.40;;;;;;;-0.25;77.06;101479.84;108771;1272;21987;-78
2022/11/30 05:25:08;;;;;;;;;;;;;;;;;;;;;
2022/11/30 05:27:41;;;;;;;84.80;59.70;;;;;;;-0.33;77.15;101487.34;108511;1278;22881;-79
2022/11/30 05:30:16;;;;;;;72.90;53.20;;;;;;;-0.34;77.13;101490.20;108544;1276;23577;-78
2022/11/30 05:32:52;;;;;;;78.30;52.70;;;;;;;-0.33;77.24;101491.61;108384;1275;23686;-79
2022/11/30 05:35:43;;;;;;;91.90;68.30;;;;;;;-0.32;77.31;101492.67;108465;1275;23045;-79
2022/11/30 05:38:26;;;;;;;83.70;60.90;;;;;;;-0.33;77.37;101494.52;108439;1277;22039;-79
2022/11/30 05:41:04;;;;;;;131.90;73.20;;;;;;;-0.36;77.41;101499.73;108551;1278;23673;-78
2022/11/30 05:43:38;;;;;;;95.20;62.00;;;;;;;-0.38;77.38;101495.23;108696;1272;22079;-76
2022/11/30 05:46:23;;;;;;;100.00;63.50;;;;;;;-0.41;77.48;101497.05;108395;1276;23679;-78
2022/11/30 05:49:18;;;;;;;80.10;54.70;;;;;;;-0.44;77.49;101497.67;108882;1276;23087;-81
2022/11/30 05:53:09;;;;;;;83.20;55.40;;;;;;;-0.45;77.79;101501.40;108522;1278;21988;-80
2022/11/30 05:56:44;;;;;;;83.80;54.90;;;;;;;-0.50;77.98;101512.21;106886;1294;23734;-80
2022/11/30 06:00:33;;;;;;;106.90;66.40;;;;;;;-0.49;78.12;101517.55;106765;1295;22203;-81
2022/11/30 06:04:05;;;;;;;80.50;51.70;;;;;;;-0.49;78.10;101521.82;106816;1292;21965;-78
2022/11/30 06:06:54;;;;;;;102.90;64.80;;;;;;;-0.45;78.08;101526.55;107172;1292;21947;-78
2022/11/30 06:09:44;;;;;;;109.50;69.30;;;;;;;-0.43;78.00;101523.87;107283;1291;21966;-79
2022/11/30 06:12:15;;;;;;;118.40;84.50;;;;;;;-0.39;77.98;101523.96;107230;1292;22310;-78
2022/11/30 06:14:54;;;;;;;192.70;120.00;;;;;;;-0.35;77.96;101529.71;107103;1295;23640;-78
2022/11/30 06:17:36;;;;;;;100.40;62.10;;;;;;;-0.32;77.99;101534.07;106733;1297;21977;-78
2022/11/30 06:20:07;;;;;;;92.60;55.80;;;;;;;-0.31;77.91;101538.02;105950;1304;23937;-78
2022/11/30 06:22:39;;;;;;;90.10;54.20;;;;;;;-0.32;77.95;101541.58;106034;1303;21965;-78
2022/11/30 06:25:44;;;;;;;85.30;51.10;;;;;;;-0.38;78.06;101538.17;105776;1311;23713;-77
2022/11/30 06:28:14;;;;;;;75.90;53.80;;;;;;;-0.45;77.95;101534.07;105988;1303;21964;-78
2022/11/30 06:30:43;;;;;;;81.20;54.90;;;;;;;-0.47;78.18;101536.75;106003;1305;23236;-79
2022/11/30 06:33:13;;;;;;;103.60;57.40;;;;;;;-0.49;78.33;101538.42;106917;1289;23734;-77
2022/11/30 06:35:45;;;;;;;79.00;54.20;;;;;;;-0.52;78.63;101536.45;107065;1294;22226;-77
2022/11/30 06:38:16;;;;;;;;;;;;;;;-0.53;78.44;101538.82;106683;1297;21939;-78
2022/11/30 06:40:49;;;;;;;78.70;48.10;;;;;;;-0.62;78.73;101541.66;106483;1298;21963;-79
2022/11/30 06:43:19;;;;;;;85.10;54.00;;;;;;;-0.62;78.75;101545.75;107077;1289;23721;-77
2022/11/30 06:45:50;;;;;;;77.30;53.50;;;;;;;-0.62;78.79;101544.21;107818;1284;23072;-77
2022/11/30 06:48:26;;;;;;;94.40;59.70;;;;;;;-0.62;78.95;101546.63;108043;1283;23345;-78
2022/11/30 06:51:01;;;;;;;89.70;60.20;;;;;;;-0.55;78.81;101547.48;108066;1283;21959;-78
2022/11/30 06:53:32;;;;;;;105.90;74.80;;;;;;;-0.45;78.93;101551.67;108160;1278;22873;-78
2022/11/30 06:56:07;;;;;;;97.80;68.10;;;;;;;-0.37;78.85;101553.76;108485;1271;21933;-79
2022/11/30 06:58:45;;;;;;;133.30;84.90;;;;;;;-0.31;78.69;101557.50;108723;1272;23010;-79
2022/11/30 07:01:22;;;;;;;127.70;73.00;;;;;;;-0.27;78.66;101558.81;108769;1272;21921;-79
2022/11/30 07:04:29;;;;;;;81.80;55.40;;;;;;;-0.25;78.59;101558.19;108672;1272;23673;-79
2022/11/30 07:07:42;;;;;;;87.20;58.70;;;;;;;-0.25;78.50;101556.98;108228;1278;22703;-79
2022/11/30 07:10:21;;;;;;;93.80;59.60;;;;;;;-0.26;78.53;101555.09;108293;1279;21939;-79
2022/11/30 07:13:01;;;;;;;91.00;59.40;;;;;;;-0.24;78.49;101554.64;108570;1264;21932;-78
2022/11/30 07:15:42;;;;;;;84.30;57.10;;;;;;;-0.24;78.47;101554.45;108496;1278;22988;-78
2022/11/30 07:18:12;;;;;;;103.10;67.50;;;;;;;-0.22;78.59;101556.04;108446;1279;22064;-78
2022/11/30 07:20:41;;;;;;;91.60;64.80;;;;;;;-0.16;78.53;101559.63;108304;1276;22010;-77
2022/11/30 07:26:06;;;;;;;148.50;82.30;;;;;;;-0.10;78.53;101561.83;108418;1275;21935;-77
2022/11/30 07:28:44;;;;;;;126.90;77.20;;;;;;;-0.08;78.55;101563.25;108485;1275;21942;-78
2022/11/30 07:31:24;;;;;;;87.60;60.30;;;;;;;-0.07;78.42;101563.77;108290;1277;23769;-81
2022/11/30 07:33:58;;;;;;;77.20;53.00;;;;;;;-0.07;78.39;101564.28;108524;1278;21926;-80
2022/11/30 07:36:35;;;;;;;72.10;48.50;;;;;;;-0.14;78.17;101567.52;108470;1275;23606;-79
2022/11/30 07:39:23;;;;;;;84.00;56.40;;;;;;;-0.24;78.16;101566.95;108502;1278;21959;-78
2022/11/30 07:41:55;;;;;;;93.20;66.30;;;;;;;-0.27;78.29;101568.05;108595;1272;22694;-79
2022/11/30 07:44:44;;;;;;;89.40;60.00;;;;;;;-0.24;78.44;101568.14;108443;1278;22994;-80
2022/11/30 07:47:22;;;;;;;84.10;54.70;;;;;;;-0.25;78.46;101561.10;108247;1267;21933;-80
2022/11/30 07:49:53;;;;;;;116.50;64.80;;;;;;;-0.24;78.50;101564.74;108522;1278;21948;-80
2022/11/30 07:52:25;;;;;;;87.90;58.90;;;;;;;-0.23;78.47;101563.55;108474;1278;22804;-79
2022/11/30 07:55:04;;;;;;;82.30;54.70;;;;;;;-0.19;78.65;101558.67;107682;1283;24433;-78
2022/11/30 07:57:39;;;;;;;103.00;61.30;;;;;;;-0.13;78.68;101557.11;107791;1283;21946;-77
2022/11/30 08:00:15;;;;;;;101.60;62.20;;;;;;;-0.10;78.62;101554.81;107984;1283;22028;-79
2022/11/30 08:02:55;;;;;;;91.90;61.80;;;;;;;-0.05;78.61;101558.85;108159;1278;23050;-79
2022/11/30 08:05:26;;;;;;;95.00;59.60;;;;;;;-0.01;78.63;101558.11;108161;1278;21989;-79
2022/11/30 08:08:00;;;;;;;94.30;60.90;;;;;;;0.05;78.57;101562.36;108407;1278;23035;-80
2022/11/30 08:10:45;;;;;;;96.40;69.50;;;;;;;0.03;78.31;101560.27;108206;1278;21939;-80
2022/11/30 08:13:14;;;;;;;85.60;58.60;;;;;;;-0.03;78.17;101561.31;108480;1273;21949;-79
2022/11/30 08:15:46;;;;;;;98.50;59.90;;;;;;;-0.10;78.08;101564.05;108720;1273;21922;-79
2022/11/30 08:18:15;;;;;;;88.00;58.80;;;;;;;-0.12;78.17;101567.92;108706;1272;22461;-80
2022/11/30 08:20:45;;;;;;;85.00;59.30;;;;;;;-0.12;78.25;101572.52;108781;1272;21936;-80
2022/11/30 08:23:25;;;;;;;106.10;67.40;;;;;;;-0.14;78.28;101574.36;108552;1272;22974;-80
2022/11/30 08:26:08;;;;;;;103.60;71.10;;;;;;;-0.15;78.41;101577.95;108706;1272;21932;-80
2022/11/30 08:28:59;;;;;;;85.10;54.60;;;;;;;-0.11;78.49;101583.02;108840;1272;21979;-79
2022/11/30 08:31:35;;;;;;;;;;;;;;;-0.15;78.33;101583.44;108871;1272;21893;-79
2022/11/30 08:34:23;;;;;;;80.20;50.20;;;;;;;-0.24;78.54;101587.30;108819;1272;22035;-80
2022/11/30 08:37:19;;;;;;;104.20;67.50;;;;;;;-0.26;78.61;101588.43;108665;1272;21929;-79
2022/11/30 08:39:54;;;;;;;114.30;72.50;;;;;;;-0.23;78.57;101584.94;108689;1270;22726;-80
2022/11/30 08:42:31;;;;;;;110.90;74.70;;;;;;;-0.24;78.55;101586.96;108743;1272;23692;-80
2022/11/30 08:45:28;;;;;;;90.50;64.80;;;;;;;-0.27;78.57;101592.68;108422;1275;23047;-80
2022/11/30 08:48:07;;;;;;;85.60;58.70;;;;;;;-0.31;78.50;101590.70;108438;1276;23695;-81
2022/11/30 08:50:48;;;;;;;92.80;61.70;;;;;;;-0.33;78.54;101593.38;108296;1279;21934;-81
2022/11/30 08:53:27;;;;;;;93.10;58.20;;;;;;;-0.35;78.55;101597.96;108370;1278;21933;-80
2022/11/30 08:56:17;;;;;;;81.10;57.00;;;;;;;-0.32;78.56;101600.95;108487;1275;23672;-80
2022/11/30 08:59:01;;;;;;;79.80;53.20;;;;;;;-0.35;78.51;101599.83;108443;1275;23642;-80
2022/11/30 09:01:38;;;;;;;80.80;58.50;;;;;;;-0.37;78.54;101598.42;108507;1276;24335;-80
2022/11/30 09:04:26;;;;;;;85.40;60.10;;;;;;;-0.39;78.58;101599.73;108693;1272;22978;-80
2022/11/30 09:07:10;;;;;;;82.00;54.00;;;;;;;-0.42;78.58;101601.36;108357;1278;21932;-78
2022/11/30 09:10:17;;;;;;;76.40;50.90;;;;;;;-0.40;78.65;101603.45;108335;1277;21946;-79
2022/11/30 09:13:00;;;;;;;81.70;53.90;;;;;;;-0.43;78.54;101603.73;108284;1278;21937;-80
2022/11/30 09:15:32;;;;;;;76.60;52.30;;;;;;;-0.46;78.55;101603.32;108254;1277;21932;-80
2022/11/30 09:18:08;;;;;;;89.50;56.80;;;;;;;-0.49;78.64;101600.65;107737;1283;21956;-84
2022/11/30 09:20:45;;;;;;;82.20;59.20;;;;;;;-0.45;78.79;101603.85;107967;1283;23649;-79
2022/11/30 09:23:21;;;;;;;92.10;64.60;;;;;;;-0.38;78.92;101603.70;108075;1283;21941;-80
2022/11/30 09:26:00;;;;;;;95.20;64.70;;;;;;;-0.28;78.95;101603.78;108207;1280;23687;-80
2022/11/30 09:28:29;;;;;;;86.00;59.50;;;;;;;-0.18;78.99;101604.55;108196;1279;21964;-79
2022/11/30 09:31:10;;;;;;;88.40;60.50;;;;;;;-0.09;78.95;101602.05;108298;1279;21944;-79
2022/11/30 09:33:43;;;;;;;86.80;62.10;;;;;;;-0.06;78.66;101602.30;107800;1276;21946;-78
2022/11/30 09:36:17;;;;;;;89.20;62.40;;;;;;;-0.04;78.56;101606.98;108090;1278;21985;-79
2022/11/30 09:38:48;;;;;;;81.80;62.30;;;;;;;-0.07;78.23;101605.52;108384;1278;21936;-79
2022/11/30 09:42:08;;;;;;;100.70;68.70;;;;;;;-0.10;78.16;101604.26;108027;1272;22737;-79
2022/11/30 09:45:27;;;;;;;90.80;64.30;;;;;;;-0.07;78.40;101606.55;107681;1286;23067;-79
2022/11/30 09:48:08;;;;;;;101.20;68.50;;;;;;;-0.02;78.48;101608.40;107622;1286;21944;-79
2022/11/30 09:50:43;;;;;;;87.50;66.30;;;;;;;0.05;78.55;101614.05;107578;1286;23176;-78
2022/11/30 09:53:53;;;;;;;90.20;66.50;;;;;;;0.13;78.52;101607.23;107877;1283;22742;-78
2022/11/30 09:56:38;;;;;;;89.10;63.80;;;;;;;0.15;78.20;101610.52;108051;1284;22583;-83
2022/11/30 09:59:32;;;;;;;78.30;57.50;;;;;;;0.10;77.98;101608.37;107988;1279;21956;-83
2022/11/30 10:02:16;;;;;;;84.10;60.80;;;;;;;0.09;77.93;101607.82;108212;1275;21939;-81
2022/11/30 10:04:50;;;;;;;81.90;62.20;;;;;;;0.09;77.90;101611.41;108786;1272;24291;-82
2022/11/30 10:07:54;;;;;;;87.40;62.80;;;;;;;0.08;77.85;101613.27;108742;1272;21971;-81
2022/11/30 10:16:27;;;;;;;76.90;58.20;;;;;;;0.06;77.99;101610.14;108997;1271;23699;-81
2022/11/30 10:19:24;;;;;;;64.50;49.30;;;;;;;0.06;77.86;101615.44;108977;1269;22085;-83
2022/11/30 10:22:12;;;;;;;69.60;54.50;;;;;;;-0.05;77.22;101619.27;109013;1269;21969;-79
2022/11/30 10:25:13;;;;;;;67.90;54.60;;;;;;;-0.11;77.41;101614.15;108978;1269;23676;-81
2022/11/30 10:27:58;;;;;;;76.10;56.20;;;;;;;-0.08;77.62;101611.00;109100;1272;21971;-80
2022/11/30 10:30:48;;;;;;;79.00;62.90;;;;;;;0.02;77.85;101610.21;108912;1270;23031;-79
2022/11/30 10:33:25;;;;;;;69.10;55.30;;;;;;;0.05;77.41;101609.27;108904;1272;21923;-78
2022/11/30 10:36:24;;;;;;;70.70;57.00;;;;;;;0.01;77.09;101606.59;109135;1272;21957;-80
2022/11/30 10:38:59;;;;;;;74.40;58.10;;;;;;;-0.01;77.31;101609.63;108884;1269;21981;-78
2022/11/30 10:41:49;;;;;;;82.30;62.50;;;;;;;0.04;77.35;101610.94;108495;1278;21917;-79
2022/11/30 10:44:33;;;;;;;85.80;65.30;;;;;;;0.10;77.45;101610.23;108670;1278;21952;-79
2022/11/30 10:47:19;;;;;;;92.10;72.20;;;;;;;0.17;77.46;101614.20;108441;1278;23691;-79
2022/11/30 10:49:51;;;;;;;77.70;63.90;;;;;;;0.23;77.29;101617.91;108468;1275;22821;-78
2022/11/30 10:52:33;;;;;;;67.40;55.70;;;;;;;0.24;76.78;101621.20;108053;1282;21964;-77
2022/11/30 10:55:17;;;;;;;69.20;58.40;;;;;;;0.13;76.63;101622.31;108040;1282;22002;-78
2022/11/30 11:12:54;;;;;;;76.00;62.60;;;;;;;-0.04;76.98;101619.83;109103;1272;21917;-78
2022/11/30 11:15:32;;;;;;;82.00;61.40;;;;;;;0.01;77.07;101617.20;109098;1265;21932;-79
2022/11/30 11:18:24;;;;;;;73.20;59.00;;;;;;;0.06;76.84;101616.14;109035;1272;23636;-80
2022/11/30 11:21:04;;;;;;;85.00;65.60;;;;;;;0.07;76.59;101611.35;109167;1272;23041;-78
2022/11/30 11:23:38;;;;;;;81.50;66.30;;;;;;;0.08;76.52;101606.77;109177;1272;21917;-79
2022/11/30 11:26:17;;;;;;;86.70;66.90;;;;;;;0.14;76.63;101607.09;108855;1262;21979;-78
2022/11/30 11:28:50;;;;;;;78.10;61.00;;;;;;;0.19;76.45;101609.78;108598;1276;23051;-79
2022/11/30 11:31:45;;;;;;;65.00;56.40;;;;;;;0.20;76.24;101609.13;108622;1278;22218;-79
2022/11/30 11:34:36;;;;;;;69.30;57.10;;;;;;;0.19;76.19;101609.44;108642;1273;22195;-80
2022/11/30 11:37:25;;;;;;;67.30;55.10;;;;;;;0.22;76.26;101610.52;108589;1275;23602;-80
2022/11/30 11:39:56;;;;;;;63.80;54.70;;;;;;;0.18;75.58;101610.11;108648;1275;23702;-79
2022/11/30 11:42:33;;;;;;;70.80;58.90;;;;;;;0.06;75.42;101609.45;108506;1277;21995;-81
2022/11/30 11:45:04;;;;;;;73.80;62.60;;;;;;;0.01;75.71;101615.84;109035;1263;21932;-78
2022/11/30 11:47:43;;;;;;;76.10;63.10;;;;;;;0.06;76.06;101614.27;108547;1268;23087;-78
2022/11/30 11:50:28;;;;;;;78.80;64.60;;;;;;;0.15;76.20;101608.98;108946;1263;22011;-79
2022/11/30 11:53:36;;;;;;;80.70;65.80;;;;;;;0.23;76.20;101609.54;108884;1262;21924;-78
2022/11/30 11:56:25;;;;;;;79.30;65.00;;;;;;;0.31;76.23;101609.23;108946;1262;23836;-78
2022/11/30 11:59:13;;;;;;;78.50;61.60;;;;;;;0.40;76.18;101608.57;108897;1270;21929;-78
2022/11/30 12:02:17;;;;;;;69.40;57.60;;;;;;;0.44;75.88;101614.32;108989;1263;23840;-77
2022/11/30 12:04:56;;;;;;;72.40;58.30;;;;;;;0.39;75.60;101616.96;108852;1271;21986;-78
2022/11/30 12:08:02;;;;;;;75.40;59.70;;;;;;;0.37;75.53;101614.67;108686;1262;23770;-78
2022/11/30 12:11:04;;;;;;;68.30;55.80;;;;;;;0.35;75.63;101618.40;108866;1264;22728;-78
2022/11/30 12:13:39;;;;;;;70.10;59.10;;;;;;;0.36;75.52;101621.68;109095;1269;21923;-79
2022/11/30 12:16:14;;;;;;;67.00;59.00;;;;;;;0.36;75.39;101620.14;108929;1271;21941;-79
2022/11/30 12:18:50;;;;;;;65.90;56.80;;;;;;;0.38;75.36;101617.79;108855;1266;23115;-77
2022/11/30 12:22:03;;;;;;;65.00;57.80;;;;;;;0.37;75.01;101621.17;108946;1268;23637;-77
2022/11/30 12:25:09;;;;;;;71.50;61.10;;;;;;;0.31;74.92;101623.42;108877;1257;23196;-78
2022/11/30 12:28:12;;;;;;;69.50;58.90;;;;;;;0.28;75.22;101627.98;108847;1270;22206;-82
2022/11/30 12:31:16;;;;;;;64.00;55.00;;;;;;;0.32;75.29;101629.27;109266;1271;21959;-81
2022/11/30 12:34:13;;;;;;;68.90;56.10;;;;;;;0.30;75.18;101633.85;109005;1276;22051;-81
2022/11/30 12:37:09;;;;;;;63.60;51.80;;;;;;;0.28;74.96;101634.30;108705;1278;23720;-87
2022/11/30 12:40:11;;;;;;;53.30;47.20;;;;;;;0.25;74.84;101635.77;108419;1280;22252;-83
2022/11/30 12:42:51;;;;;;;61.00;49.50;;;;;;;0.19;74.71;101638.55;108544;1282;22058;-85
2022/11/30 12:45:34;;;;;;;58.70;50.80;;;;;;;0.17;74.80;101634.73;108226;1283;22222;-77